NTAA/PPT METAR and TAF weather

Enter ICAO airport designator
Station Type Date Time Source
NTAA METAR 2022/01/19 20:30 UTC NOAA

NTAA 192030Z 07014KT 040V100 9999 VCSH FEW020 SCT050 BKN160 29/23 Q1012 NOSIG


Station Type Date Time Source
NTAA Decoded METAR 2022/01/19 20:30 UTC NOAA

Tahiti-Faaa, French Polynesia (NTAA) 17-33S 149-37W 2M
Jan 19, 2022 - 03:30 PM EST / 2022.01.19 2030 UTC
Wind: from the ENE (070 degrees) at 16 MPH (14 KT) (direction variable):0
Visibility: greater than 7 mile(s):0
Sky conditions: mostly cloudy
Weather: showers in the vicinity
Temperature: 84 F (29 C)
Dew Point: 73 F (23 C)
Relative Humidity: 70%
Pressure (altimeter): 29.88 in. Hg (1012 hPa)
ob: NTAA 192030Z 07014KT 040V100 9999 VCSH FEW020 SCT050 BKN160 29/23 Q1012 NOSIG
cycle: 20

Station Type Date Time Source
NTAA TAF 2022/01/19 18:15 UTC NOAA

TAF NTAA 191700Z 1918/2024 04015KT 9999 FEW020 SCT050 BKN200 PROB30
TEMPO 1918/2024 04015G25KT 3000 SHRA SCT018 BKN040

Example: see airport list